createdAt,value
2018-09-29T00:00:00.207Z,0
2018-09-29T00:01:02.274Z,0
2018-09-29T00:02:04.292Z,0
2018-09-29T00:03:06.357Z,0
2018-09-29T00:04:08.356Z,0
2018-09-29T00:05:10.389Z,0
2018-09-29T00:06:12.420Z,0
2018-09-29T00:07:14.440Z,0
2018-09-29T00:08:16.474Z,0
2018-09-29T00:09:18.478Z,0
2018-09-29T00:10:20.617Z,0
2018-09-29T00:11:22.557Z,0
2018-09-29T00:12:24.582Z,0
2018-09-29T00:13:26.883Z,0
2018-09-29T00:14:29.290Z,0
2018-09-29T00:15:31.328Z,0
2018-09-29T00:16:33.416Z,0
2018-09-29T00:17:35.413Z,0
2018-09-29T00:18:37.428Z,0
2018-09-29T00:19:39.489Z,0
2018-09-29T00:20:41.515Z,0
2018-09-29T00:21:43.542Z,0
2018-09-29T00:22:45.562Z,0
2018-09-29T00:23:47.628Z,0
2018-09-29T00:24:49.917Z,0
2018-09-29T00:25:51.950Z,0
2018-09-29T00:26:53.987Z,0
2018-09-29T00:27:56.019Z,0
2018-09-29T00:28:58.031Z,0
2018-09-29T00:30:00.357Z,0
2018-09-29T00:31:02.375Z,0
2018-09-29T00:32:04.428Z,0
2018-09-29T00:33:06.808Z,0
2018-09-29T00:34:08.817Z,0
2018-09-29T00:35:10.866Z,0
2018-09-29T00:36:12.886Z,0
2018-09-29T00:37:15.205Z,0
2018-09-29T00:38:17.503Z,0
2018-09-29T00:39:19.527Z,0
2018-09-29T00:40:21.861Z,0
2018-09-29T00:41:23.902Z,0
2018-09-29T00:42:26.237Z,0
2018-09-29T00:43:28.266Z,0
2018-09-29T00:44:30.281Z,0
2018-09-29T00:45:32.319Z,0
2018-09-29T00:46:34.348Z,0
2018-09-29T00:47:36.383Z,0
2018-09-29T00:48:38.705Z,0
2018-09-29T00:49:40.760Z,0
2018-09-29T00:50:43.083Z,0
2018-09-29T00:51:45.098Z,0
2018-09-29T00:52:47.503Z,0
2018-09-29T00:53:49.535Z,0
2018-09-29T00:54:51.851Z,0
2018-09-29T00:55:53.872Z,0
2018-09-29T00:56:56.221Z,0
2018-09-29T00:57:58.230Z,0
2018-09-29T00:59:00.291Z,0
2018-09-29T01:00:02.318Z,0
2018-09-29T01:01:04.649Z,0
2018-09-29T01:02:07.064Z,0
2018-09-29T01:03:09.126Z,0
2018-09-29T01:04:11.139Z,0
2018-09-29T01:05:13.446Z,0
2018-09-29T01:06:15.480Z,0
2018-09-29T01:07:17.495Z,0
2018-09-29T01:08:19.520Z,0
2018-09-29T01:09:21.532Z,0
2018-09-29T01:10:23.603Z,0
2018-09-29T01:11:25.902Z,0
2018-09-29T01:12:27.919Z,0
2018-09-29T01:13:29.946Z,0
2018-09-29T01:14:31.957Z,0
2018-09-29T01:15:34.017Z,0
2018-09-29T01:16:36.035Z,0
2018-09-29T01:17:38.048Z,0
2018-09-29T01:18:40.064Z,0
2018-09-29T01:19:42.093Z,0
2018-09-29T01:20:44.185Z,0
2018-09-29T01:21:46.509Z,0
2018-09-29T01:22:48.576Z,0
2018-09-29T01:23:50.889Z,0
2018-09-29T01:24:52.913Z,0
2018-09-29T01:25:54.938Z,0
2018-09-29T01:26:57.332Z,0
2018-09-29T01:27:59.415Z,0
2018-09-29T01:29:01.714Z,0
2018-09-29T01:30:04.408Z,0
2018-09-29T01:31:06.693Z,0
2018-09-29T01:32:09.078Z,0
2018-09-29T01:33:11.388Z,0
2018-09-29T01:34:13.420Z,0
2018-09-29T01:35:15.817Z,0
2018-09-29T01:36:18.523Z,0
2018-09-29T01:37:20.534Z,0
2018-09-29T01:38:22.549Z,0
2018-09-29T01:39:24.627Z,0
2018-09-29T01:40:26.641Z,0
2018-09-29T01:41:28.664Z,0
2018-09-29T01:42:30.975Z,0
2018-09-29T01:43:33.399Z,0
2018-09-29T01:44:35.416Z,0
2018-09-29T01:45:37.439Z,0
2018-09-29T01:46:39.545Z,0
2018-09-29T01:47:41.554Z,0
2018-09-29T01:48:43.967Z,0
2018-09-29T01:49:46.368Z,0
2018-09-29T01:50:48.379Z,0
2018-09-29T01:51:50.778Z,0
2018-09-29T01:52:52.804Z,0
2018-09-29T01:53:55.106Z,0
2018-09-29T01:54:57.203Z,0
2018-09-29T01:55:59.238Z,0
2018-09-29T01:57:01.264Z,0
2018-09-29T01:58:03.359Z,0
2018-09-29T01:59:05.669Z,0
2018-09-29T02:00:07.720Z,0
2018-09-29T02:01:09.735Z,0
2018-09-29T02:02:11.752Z,0
2018-09-29T02:03:14.153Z,0
2018-09-29T02:04:16.571Z,0
2018-09-29T02:05:18.971Z,0
2018-09-29T02:06:21.326Z,0
2018-09-29T02:07:23.341Z,0
2018-09-29T02:08:25.357Z,0
2018-09-29T02:09:27.493Z,0
2018-09-29T02:10:29.824Z,0
2018-09-29T02:11:31.920Z,0
2018-09-29T02:12:33.952Z,0
2018-09-29T02:13:35.963Z,0
2018-09-29T02:14:38.004Z,0
2018-09-29T02:15:40.320Z,0
2018-09-29T02:16:42.351Z,0
2018-09-29T02:17:44.695Z,0
2018-09-29T02:18:46.716Z,0
2018-09-29T02:19:48.744Z,0
2018-09-29T02:20:50.832Z,0
2018-09-29T02:21:52.861Z,0
2018-09-29T02:22:55.226Z,0
2018-09-29T02:23:57.335Z,0
2018-09-29T02:24:59.349Z,0
2018-09-29T02:26:01.380Z,0
2018-09-29T02:27:03.478Z,0
2018-09-29T02:28:05.504Z,0
2018-09-29T02:29:07.530Z,0
2018-09-29T02:30:09.638Z,0
2018-09-29T02:31:12.626Z,0
2018-09-29T02:32:14.659Z,0
2018-09-29T02:33:16.952Z,0
2018-09-29T02:34:18.977Z,0
2018-09-29T02:35:21.401Z,0
2018-09-29T02:36:23.417Z,0
2018-09-29T02:37:26.702Z,0
2018-09-29T02:38:29.301Z,0
2018-09-29T02:39:31.318Z,0
2018-09-29T02:40:33.331Z,0
2018-09-29T02:41:35.563Z,0
2018-09-29T02:42:37.889Z,0
2018-09-29T02:43:39.918Z,0
2018-09-29T02:44:41.942Z,0
2018-09-29T02:45:44.245Z,0
2018-09-29T02:46:46.273Z,0
2018-09-29T02:47:48.681Z,0
2018-09-29T02:48:51.013Z,0
2018-09-29T02:49:53.437Z,0
2018-09-29T02:50:55.816Z,0
2018-09-29T02:51:58.147Z,0
2018-09-29T02:53:00.181Z,0
2018-09-29T02:54:02.500Z,0
2018-09-29T02:55:04.907Z,0
2018-09-29T02:56:07.261Z,0
2018-09-29T02:57:09.668Z,0
2018-09-29T02:58:11.696Z,0
2018-09-29T02:59:13.714Z,0
2018-09-29T03:00:15.741Z,0
2018-09-29T03:01:18.038Z,0
2018-09-29T03:02:20.441Z,0
2018-09-29T03:03:22.600Z,0
2018-09-29T03:04:24.913Z,0
2018-09-29T03:05:26.930Z,0
2018-09-29T03:06:28.961Z,0
2018-09-29T03:07:31.707Z,0
2018-09-29T03:08:34.013Z,0
2018-09-29T03:09:36.038Z,0
2018-09-29T03:10:38.048Z,0
2018-09-29T03:11:40.377Z,0
2018-09-29T03:12:42.537Z,0
2018-09-29T03:13:44.851Z,0
2018-09-29T03:14:46.857Z,0
2018-09-29T03:15:48.881Z,0
2018-09-29T03:16:51.307Z,0
2018-09-29T03:17:53.642Z,0
2018-09-29T03:18:55.674Z,0
2018-09-29T03:19:57.702Z,0
2018-09-29T03:20:59.758Z,0
2018-09-29T03:22:01.776Z,0
2018-09-29T03:23:03.848Z,0
2018-09-29T03:24:06.252Z,0
2018-09-29T03:25:08.566Z,0
2018-09-29T03:26:10.692Z,0
2018-09-29T03:27:12.720Z,0
2018-09-29T03:28:14.732Z,0
2018-09-29T03:29:16.756Z,0
2018-09-29T03:30:19.087Z,0
2018-09-29T03:31:21.184Z,0
2018-09-29T03:32:23.138Z,0
2018-09-29T03:33:25.147Z,0
2018-09-29T03:34:27.163Z,0
2018-09-29T03:35:29.477Z,0
2018-09-29T03:36:31.511Z,0
2018-09-29T03:37:33.524Z,0
2018-09-29T03:38:35.542Z,0
2018-09-29T03:39:38.184Z,0
2018-09-29T03:40:40.193Z,0
2018-09-29T03:41:42.601Z,0
2018-09-29T03:42:44.630Z,0
2018-09-29T03:43:46.641Z,0
2018-09-29T03:44:49.619Z,0
2018-09-29T03:45:52.023Z,0
2018-09-29T03:46:54.352Z,0
2018-09-29T03:47:56.359Z,0
2018-09-29T03:48:58.768Z,0
2018-09-29T03:50:00.785Z,0
2018-09-29T03:51:03.407Z,0
2018-09-29T03:52:05.435Z,0
2018-09-29T03:53:07.440Z,0
2018-09-29T03:54:09.744Z,0
2018-09-29T03:55:11.757Z,0
2018-09-29T03:56:14.091Z,0
2018-09-29T03:57:16.412Z,0
2018-09-29T03:58:18.826Z,0
2018-09-29T03:59:20.852Z,0
2018-09-29T04:00:22.867Z,0
2018-09-29T04:01:25.170Z,0
2018-09-29T04:02:27.191Z,0
2018-09-29T04:03:29.219Z,0
2018-09-29T04:04:31.521Z,0
2018-09-29T04:05:33.535Z,0
2018-09-29T04:06:35.555Z,0
2018-09-29T04:07:37.573Z,0
2018-09-29T04:08:39.585Z,0
2018-09-29T04:09:41.941Z,0
2018-09-29T04:10:44.639Z,0
2018-09-29T04:11:46.955Z,0
2018-09-29T04:12:48.987Z,0
2018-09-29T04:13:52.050Z,0
2018-09-29T04:14:54.363Z,0
2018-09-29T04:15:56.384Z,0
2018-09-29T04:16:58.398Z,0
2018-09-29T04:18:00.426Z,0
2018-09-29T04:19:03.412Z,0
2018-09-29T04:20:05.434Z,0
2018-09-29T04:21:07.447Z,0
2018-09-29T04:22:09.751Z,0
2018-09-29T04:23:11.767Z,0
2018-09-29T04:24:13.784Z,0
2018-09-29T04:25:15.815Z,0
2018-09-29T04:26:18.205Z,0
2018-09-29T04:27:21.104Z,0
2018-09-29T04:28:23.123Z,0
2018-09-29T04:29:25.152Z,0
2018-09-29T04:30:27.169Z,0
2018-09-29T04:31:29.189Z,0
2018-09-29T04:32:31.221Z,0
2018-09-29T04:33:33.638Z,0
2018-09-29T04:34:35.669Z,0
2018-09-29T04:35:37.685Z,4
2018-09-29T04:36:39.985Z,4
2018-09-29T04:37:42.283Z,0
2018-09-29T04:38:44.597Z,4
2018-09-29T04:39:46.611Z,4
2018-09-29T04:40:48.909Z,4
2018-09-29T04:41:51.308Z,4
2018-09-29T04:42:53.333Z,4
2018-09-29T04:43:55.347Z,8
2018-09-29T04:44:57.358Z,8
2018-09-29T04:45:59.389Z,8
2018-09-29T04:47:01.402Z,12
2018-09-29T04:48:03.809Z,16
2018-09-29T04:49:06.225Z,16
2018-09-29T04:50:08.127Z,20
2018-09-29T04:51:10.444Z,28
2018-09-29T04:52:12.469Z,32
2018-09-29T04:53:14.881Z,40
2018-09-29T04:54:16.896Z,44
2018-09-29T04:55:18.928Z,52
2018-09-29T04:56:20.942Z,64
2018-09-29T04:57:22.956Z,72
2018-09-29T04:58:25.309Z,80
2018-09-29T04:59:27.315Z,96
2018-09-29T05:00:29.391Z,108
2018-09-29T05:01:31.410Z,124
2018-09-29T05:02:33.720Z,144
2018-09-29T05:03:35.736Z,164
2018-09-29T05:04:38.139Z,184
2018-09-29T05:05:40.163Z,208
2018-09-29T05:06:42.177Z,236
2018-09-29T05:07:44.215Z,260
2018-09-29T05:08:46.237Z,288
2018-09-29T05:09:48.249Z,320
2018-09-29T05:10:50.551Z,352
2018-09-29T05:11:52.575Z,388
2018-09-29T05:12:54.597Z,424
2018-09-29T05:13:56.680Z,460
2018-09-29T05:14:58.652Z,500
2018-09-29T05:16:00.659Z,540
2018-09-29T05:17:02.679Z,584
2018-09-29T05:18:04.705Z,624
2018-09-29T05:19:06.716Z,672
2018-09-29T05:20:08.737Z,716
2018-09-29T05:21:11.146Z,764
2018-09-29T05:22:13.158Z,808
2018-09-29T05:23:15.222Z,856
2018-09-29T05:24:17.611Z,908
2018-09-29T05:25:19.924Z,960
2018-09-29T05:26:22.318Z,1008
2018-09-29T05:27:24.408Z,1060
2018-09-29T05:28:26.709Z,1108
2018-09-29T05:29:28.730Z,1160
2018-09-29T05:30:30.754Z,1212
2018-09-29T05:31:32.763Z,1264
2018-09-29T05:32:35.174Z,1316
2018-09-29T05:33:37.194Z,1372
2018-09-29T05:34:39.217Z,1432
2018-09-29T05:35:41.227Z,1484
2018-09-29T05:36:43.247Z,1536
2018-09-29T05:37:45.267Z,1588
2018-09-29T05:38:47.280Z,1636
2018-09-29T05:39:49.310Z,1688
2018-09-29T05:40:51.314Z,1732
2018-09-29T05:41:53.338Z,1780
2018-09-29T05:42:56.035Z,1828
2018-09-29T05:43:58.341Z,1876
2018-09-29T05:45:00.357Z,1924
2018-09-29T05:46:02.663Z,1968
2018-09-29T05:47:04.962Z,2012
2018-09-29T05:48:06.988Z,2060
2018-09-29T05:49:09.007Z,2104
2018-09-29T05:50:11.025Z,2148
2018-09-29T05:51:13.425Z,2188
2018-09-29T05:52:15.453Z,2228
2018-09-29T05:53:17.466Z,2272
2018-09-29T05:54:19.480Z,2316
2018-09-29T05:55:21.491Z,2356
2018-09-29T05:56:23.813Z,2396
2018-09-29T05:57:25.837Z,2432
2018-09-29T05:58:27.855Z,2476
2018-09-29T05:59:29.873Z,2520
2018-09-29T06:00:32.108Z,2560
2018-09-29T06:01:34.068Z,2596
2018-09-29T06:02:36.092Z,2636
2018-09-29T06:03:38.396Z,2676
2018-09-29T06:04:40.402Z,2716
2018-09-29T06:05:42.825Z,2752
2018-09-29T06:06:45.306Z,2792
2018-09-29T06:07:47.267Z,2832
2018-09-29T06:08:49.275Z,2868
2018-09-29T06:09:51.610Z,2904
2018-09-29T06:10:53.629Z,2940
2018-09-29T06:11:55.644Z,2976
2018-09-29T06:12:57.676Z,3016
2018-09-29T06:13:59.683Z,3052
2018-09-29T06:15:01.988Z,3092
2018-09-29T06:16:04.025Z,3128
2018-09-29T06:17:06.055Z,3160
2018-09-29T06:18:08.069Z,3192
2018-09-29T06:19:10.092Z,3224
2018-09-29T06:20:13.055Z,3256
2018-09-29T06:21:15.070Z,3288
2018-09-29T06:22:17.095Z,3316
2018-09-29T06:23:19.408Z,3352
2018-09-29T06:24:21.422Z,3384
2018-09-29T06:25:23.743Z,3416
2018-09-29T06:26:26.042Z,3448
2018-09-29T06:27:28.448Z,3484
2018-09-29T06:28:30.475Z,3512
2018-09-29T06:29:32.482Z,3548
2018-09-29T06:30:34.791Z,3580
2018-09-29T06:31:36.815Z,3616
2018-09-29T06:32:38.836Z,3648
2018-09-29T06:33:41.245Z,3680
2018-09-29T06:34:43.262Z,3708
2018-09-29T06:35:45.287Z,3736
2018-09-29T06:36:47.328Z,3764
2018-09-29T06:37:49.320Z,3796
2018-09-29T06:38:51.352Z,3824
2018-09-29T06:39:53.660Z,3848
2018-09-29T06:40:55.766Z,3880
2018-09-29T06:41:58.191Z,3908
2018-09-29T06:43:00.205Z,3936
2018-09-29T06:44:02.227Z,3964
2018-09-29T06:45:04.240Z,3992
2018-09-29T06:46:06.267Z,4020
2018-09-29T06:47:08.276Z,4048
2018-09-29T06:48:10.382Z,4076
2018-09-29T06:49:12.711Z,4100
2018-09-29T06:50:14.736Z,4132
2018-09-29T06:51:17.057Z,4164
2018-09-29T06:52:19.074Z,4196
2018-09-29T06:53:21.091Z,4224
2018-09-29T06:54:23.159Z,4260
2018-09-29T06:55:25.136Z,4292
2018-09-29T06:56:27.151Z,4328
2018-09-29T06:57:29.166Z,4368
2018-09-29T06:58:31.198Z,4404
2018-09-29T06:59:33.213Z,4428
2018-09-29T07:00:35.230Z,4460
2018-09-29T07:01:37.255Z,4496
2018-09-29T07:02:39.266Z,4528
2018-09-29T07:03:41.288Z,4572
2018-09-29T07:04:43.317Z,4612
2018-09-29T07:05:45.343Z,4656
2018-09-29T07:06:47.354Z,4704
2018-09-29T07:07:49.381Z,4740
2018-09-29T07:08:51.397Z,4780
2018-09-29T07:09:53.409Z,4808
2018-09-29T07:10:55.425Z,4848
2018-09-29T07:11:57.456Z,4892
2018-09-29T07:12:59.513Z,4940
2018-09-29T07:14:01.908Z,4984
2018-09-29T07:15:03.917Z,5036
2018-09-29T07:16:05.946Z,5088
2018-09-29T07:17:07.971Z,5140
2018-09-29T07:18:09.993Z,5200
2018-09-29T07:19:12.023Z,5268
2018-09-29T07:20:14.033Z,5336
2018-09-29T07:21:16.063Z,8728
2018-09-29T07:22:18.379Z,21952
2018-09-29T07:23:20.712Z,24704
2018-09-29T07:24:22.709Z,18208
2018-09-29T07:25:25.203Z,15412
2018-09-29T07:26:27.542Z,26752
2018-09-29T07:27:29.563Z,36960
2018-09-29T07:28:32.264Z,38688
2018-09-29T07:29:34.281Z,35904
2018-09-29T07:30:36.297Z,33440
2018-09-29T07:31:38.614Z,31648
2018-09-29T07:32:40.642Z,30272
2018-09-29T07:33:42.665Z,29952
2018-09-29T07:34:44.696Z,28192
2018-09-29T07:35:46.708Z,28384
2018-09-29T07:36:49.020Z,30880
2018-09-29T07:37:51.049Z,32384
2018-09-29T07:38:53.078Z,33376
2018-09-29T07:39:55.090Z,34912
2018-09-29T07:40:57.121Z,36992
2018-09-29T07:41:59.426Z,36864
2018-09-29T07:43:01.446Z,36416
2018-09-29T07:44:03.483Z,37824
2018-09-29T07:45:05.786Z,39296
2018-09-29T07:46:08.207Z,42688
2018-09-29T07:47:10.224Z,47648
2018-09-29T07:48:12.558Z,54080
2018-09-29T07:49:15.036Z,47104
2018-09-29T07:50:17.916Z,46784
2018-09-29T07:51:19.949Z,49216
2018-09-29T07:52:21.963Z,49312
2018-09-29T07:53:23.998Z,48704
2018-09-29T07:54:26.018Z,45792
2018-09-29T07:55:28.325Z,47776
2018-09-29T07:56:30.347Z,60032
2018-09-29T07:57:32.963Z,47424
2018-09-29T07:58:34.977Z,35456
2018-09-29T07:59:37.009Z,42976
2018-09-29T08:00:39.039Z,43680
2018-09-29T08:01:41.355Z,46944
2018-09-29T08:02:43.390Z,49760
2018-09-29T08:03:45.421Z,50784
2018-09-29T08:04:47.828Z,51520
2018-09-29T08:05:50.244Z,50720
2018-09-29T08:06:52.555Z,49408
2018-09-29T08:07:54.578Z,49888
2018-09-29T08:08:56.616Z,51680
2018-09-29T08:09:58.640Z,52544
2018-09-29T08:11:01.047Z,50944
2018-09-29T08:12:03.078Z,47488
2018-09-29T08:13:05.114Z,47200
2018-09-29T08:14:07.523Z,48800
2018-09-29T08:15:09.840Z,50880
2018-09-29T08:16:11.879Z,51264
2018-09-29T08:17:14.583Z,50816
2018-09-29T08:18:16.622Z,54112
2018-09-29T08:19:18.646Z,54336
2018-09-29T08:20:20.682Z,51648
2018-09-29T08:21:22.704Z,51200
2018-09-29T08:22:24.740Z,51936
2018-09-29T08:23:26.771Z,52608
2018-09-29T08:24:28.877Z,53856
2018-09-29T08:25:30.841Z,55616
2018-09-29T08:26:32.870Z,52000
2018-09-29T08:27:35.278Z,51424
2018-09-29T08:28:37.308Z,56672
2018-09-29T08:29:39.332Z,62944
2018-09-29T08:30:41.675Z,63616
2018-09-29T08:31:43.700Z,61760
2018-09-29T08:32:45.740Z,65216
2018-09-29T08:33:47.780Z,60480
2018-09-29T08:34:49.801Z,57504
2018-09-29T08:35:52.121Z,56800
2018-09-29T08:36:54.162Z,55168
2018-09-29T08:37:56.247Z,56096
2018-09-29T08:38:58.762Z,52832
2018-09-29T08:40:00.796Z,46592
2018-09-29T08:41:03.126Z,61216
2018-09-29T08:42:05.165Z,63712
2018-09-29T08:43:07.204Z,66560
2018-09-29T08:44:09.235Z,64800
2018-09-29T08:45:11.264Z,69792
2018-09-29T08:46:13.309Z,72000
2018-09-29T08:47:15.345Z,76704
2018-09-29T08:48:17.387Z,77632
2018-09-29T08:49:19.433Z,73504
2018-09-29T08:50:21.845Z,69824
2018-09-29T08:51:23.888Z,67840
2018-09-29T08:52:26.303Z,65696
2018-09-29T08:53:29.011Z,64416
2018-09-29T08:54:31.631Z,63872
2018-09-29T08:55:33.671Z,62816
2018-09-29T08:56:35.714Z,61856
2018-09-29T08:57:38.058Z,64128
2018-09-29T08:58:40.089Z,64480
2018-09-29T08:59:42.146Z,66400
2018-09-29T09:00:44.198Z,68320
2018-09-29T09:01:46.240Z,72960
2018-09-29T09:02:48.307Z,62496
2018-09-29T09:03:50.367Z,55904
2018-09-29T09:04:52.394Z,54624
2018-09-29T09:05:54.440Z,57440
2018-09-29T09:06:56.487Z,55520
2018-09-29T09:07:58.789Z,57568
2018-09-29T09:09:00.833Z,58048
2018-09-29T09:10:02.890Z,66656
2018-09-29T09:11:04.916Z,64320
2018-09-29T09:12:07.371Z,68064
2018-09-29T09:13:09.403Z,66240
2018-09-29T09:14:11.453Z,78080
2018-09-29T09:15:13.498Z,70720
2018-09-29T09:16:15.854Z,72352
2018-09-29T09:17:18.514Z,66624
2018-09-29T09:18:20.566Z,75232
2018-09-29T09:19:22.610Z,74176
2018-09-29T09:20:24.643Z,76640
2018-09-29T09:21:26.702Z,75328
2018-09-29T09:22:28.741Z,76896
2018-09-29T09:23:30.804Z,72608
2018-09-29T09:24:33.204Z,71936
2018-09-29T09:25:35.237Z,73792
2018-09-29T09:26:37.279Z,69984
2018-09-29T09:27:39.612Z,68256
2018-09-29T09:28:41.653Z,71680
2018-09-29T09:29:43.716Z,72480
2018-09-29T09:30:45.746Z,75232
2018-09-29T09:31:47.794Z,72704
2018-09-29T09:32:49.856Z,71680
2018-09-29T09:33:52.522Z,72448
2018-09-29T09:34:54.949Z,70272
2018-09-29T09:35:57.039Z,70688
2018-09-29T09:36:59.083Z,69728
2018-09-29T09:38:01.119Z,65152
2018-09-29T09:39:03.463Z,66848
2018-09-29T09:40:05.522Z,69568
2018-09-29T09:41:07.568Z,71168
2018-09-29T09:42:09.616Z,72096
2018-09-29T09:43:12.047Z,71232
2018-09-29T09:44:14.071Z,71936
2018-09-29T09:45:16.116Z,72096
2018-09-29T09:46:18.153Z,66528
2018-09-29T09:47:20.204Z,68576
2018-09-29T09:48:22.253Z,73312
2018-09-29T09:49:24.333Z,72128
2018-09-29T09:50:26.897Z,71744
2018-09-29T09:51:28.930Z,72160
2018-09-29T09:52:30.981Z,76928
2018-09-29T09:53:33.032Z,84160
2018-09-29T09:54:35.363Z,82752
2018-09-29T09:55:37.408Z,83648
2018-09-29T09:56:39.824Z,79456
2018-09-29T09:57:42.468Z,76736
2018-09-29T09:58:44.500Z,84000
2018-09-29T09:59:46.547Z,89952
2018-09-29T10:00:49.007Z,19104
2018-09-29T10:01:51.334Z,72864
2018-09-29T10:02:53.374Z,77344
2018-09-29T10:03:55.524Z,86880
2018-09-29T10:04:58.543Z,84640
2018-09-29T10:06:00.569Z,83712
2018-09-29T10:07:02.906Z,89664
2018-09-29T10:08:05.022Z,94816
2018-09-29T10:09:07.076Z,91712
2018-09-29T10:10:09.115Z,89184
2018-09-29T10:11:11.161Z,91136
2018-09-29T10:12:13.878Z,94592
2018-09-29T10:13:15.919Z,97696
2018-09-29T10:14:17.968Z,94400
2018-09-29T10:15:20.391Z,86304
2018-09-29T10:16:22.435Z,82720
2018-09-29T10:17:24.503Z,82496
2018-09-29T10:18:27.204Z,87200
2018-09-29T10:19:29.553Z,89152
2018-09-29T10:20:31.625Z,85600
2018-09-29T10:21:33.687Z,81184
2018-09-29T10:22:35.725Z,81344
2018-09-29T10:23:37.775Z,80096
2018-09-29T10:24:40.210Z,81824
2018-09-29T10:25:42.237Z,85696
2018-09-29T10:26:44.614Z,89536
2018-09-29T10:27:46.669Z,90080
2018-09-29T10:28:49.178Z,85312
2018-09-29T10:29:51.233Z,85376
2018-09-29T10:30:53.267Z,82304
2018-09-29T10:31:55.344Z,96736
2018-09-29T10:32:57.380Z,97216
2018-09-29T10:33:59.828Z,99232
2018-09-29T10:35:02.270Z,96224
2018-09-29T10:36:04.350Z,10508
2018-09-29T10:37:06.505Z,9324
2018-09-29T10:38:08.978Z,9604
2018-09-29T10:39:11.031Z,91360
2018-09-29T10:40:13.068Z,95936
2018-09-29T10:41:15.102Z,96192
2018-09-29T10:42:17.138Z,95616
2018-09-29T10:43:19.186Z,98240
2018-09-29T10:44:21.226Z,100480
2018-09-29T10:45:23.677Z,98816
2018-09-29T10:46:25.751Z,57856
2018-09-29T10:47:27.796Z,95968
2018-09-29T10:48:29.884Z,104224
2018-09-29T10:49:31.939Z,103936
2018-09-29T10:50:34.009Z,100256
2018-09-29T10:51:36.046Z,104064
2018-09-29T10:52:38.138Z,104768
2018-09-29T10:53:40.176Z,100896
2018-09-29T10:54:42.229Z,92800
2018-09-29T10:55:44.263Z,16996
2018-09-29T10:56:46.596Z,32992
2018-09-29T10:57:48.630Z,89152
2018-09-29T10:58:50.671Z,80576
2018-09-29T10:59:52.920Z,59968
2018-09-29T11:00:54.966Z,13780
2018-09-29T11:01:56.996Z,14380
2018-09-29T11:02:59.052Z,15040
2018-09-29T11:04:01.088Z,14960
2018-09-29T11:05:03.579Z,15724
2018-09-29T11:06:05.978Z,19328
2018-09-29T11:07:08.029Z,99392
2018-09-29T11:08:10.064Z,97408
2018-09-29T11:09:12.403Z,94080
2018-09-29T11:10:14.452Z,96032
2018-09-29T11:11:16.480Z,99424
2018-09-29T11:12:18.863Z,103552
2018-09-29T11:13:20.969Z,103008
2018-09-29T11:14:23.303Z,105728
2018-09-29T11:15:26.066Z,108576
2018-09-29T11:16:28.113Z,100160
2018-09-29T11:17:30.165Z,84000
2018-09-29T11:18:32.220Z,91712
2018-09-29T11:19:34.315Z,104704
2018-09-29T11:20:36.354Z,22208
2018-09-29T11:21:38.415Z,19168
2018-09-29T11:22:40.458Z,17504
2018-09-29T11:23:42.772Z,17036
2018-09-29T11:24:45.204Z,18592
2018-09-29T11:25:47.243Z,96640
2018-09-29T11:26:49.279Z,68192
2018-09-29T11:27:51.337Z,31936
2018-09-29T11:28:53.370Z,20512
2018-09-29T11:29:55.691Z,14540
2018-09-29T11:30:58.120Z,13668
2018-09-29T11:32:00.571Z,12860
2018-09-29T11:33:02.610Z,12144
2018-09-29T11:34:04.667Z,11628
2018-09-29T11:35:07.090Z,11576
2018-09-29T11:36:09.420Z,11596
2018-09-29T11:37:11.449Z,12104
2018-09-29T11:38:13.495Z,12996
2018-09-29T11:39:15.845Z,13884
2018-09-29T11:40:18.691Z,14844
2018-09-29T11:41:21.016Z,15412
2018-09-29T11:42:23.057Z,15640
2018-09-29T11:43:25.115Z,15568
2018-09-29T11:44:27.426Z,15216
2018-09-29T11:45:29.474Z,14916
2018-09-29T11:46:31.794Z,14956
2018-09-29T11:47:33.832Z,74592
2018-09-29T11:48:36.151Z,13428
2018-09-29T11:49:38.194Z,10992
2018-09-29T11:50:40.229Z,10596
2018-09-29T11:51:42.274Z,10752
2018-09-29T11:52:44.326Z,11200
2018-09-29T11:53:46.359Z,12172
2018-09-29T11:54:48.401Z,12724
2018-09-29T11:55:50.731Z,13316
2018-09-29T11:56:53.660Z,14312
2018-09-29T11:57:55.702Z,15708
2018-09-29T11:58:58.131Z,17432
2018-09-29T12:00:00.176Z,19488
2018-09-29T12:01:02.288Z,21312
2018-09-29T12:02:04.658Z,23232
2018-09-29T12:03:07.059Z,22208
2018-09-29T12:04:09.091Z,22976
2018-09-29T12:05:11.137Z,22528
2018-09-29T12:06:13.513Z,23392
2018-09-29T12:07:15.597Z,22272
2018-09-29T12:08:17.982Z,20256
2018-09-29T12:09:20.679Z,19456
2018-09-29T12:10:22.728Z,18912
2018-09-29T12:11:25.044Z,18464
2018-09-29T12:12:27.081Z,18272
2018-09-29T12:13:29.106Z,17564
2018-09-29T12:14:31.149Z,16784
2018-09-29T12:15:33.464Z,16592
2018-09-29T12:16:35.795Z,17304
2018-09-29T12:17:37.822Z,20608
2018-09-29T12:18:39.870Z,22784
2018-09-29T12:19:42.182Z,20544
2018-09-29T12:20:44.213Z,21568
2018-09-29T12:21:46.248Z,23328
2018-09-29T12:22:48.672Z,25408
2018-09-29T12:23:50.713Z,25728
2018-09-29T12:24:53.052Z,26208
2018-09-29T12:25:55.093Z,32160
2018-09-29T12:26:57.120Z,37376
2018-09-29T12:27:59.161Z,34080
2018-09-29T12:29:01.204Z,27744
2018-09-29T12:30:03.230Z,25728
2018-09-29T12:31:05.265Z,24672
2018-09-29T12:32:08.088Z,23616
2018-09-29T12:33:10.116Z,22240
2018-09-29T12:34:12.163Z,20384
2018-09-29T12:35:14.195Z,18752
2018-09-29T12:36:16.231Z,17164
2018-09-29T12:37:18.631Z,15532
2018-09-29T12:38:20.599Z,13664
2018-09-29T12:39:22.644Z,12416
2018-09-29T12:40:24.669Z,11708
2018-09-29T12:41:26.705Z,11220
2018-09-29T12:42:28.731Z,10972
2018-09-29T12:43:30.779Z,11164
2018-09-29T12:44:33.183Z,11584
2018-09-29T12:45:35.160Z,11976
2018-09-29T12:46:37.467Z,12432
2018-09-29T12:47:39.585Z,13092
2018-09-29T12:48:41.541Z,13952
2018-09-29T12:49:43.569Z,14624
2018-09-29T12:50:45.928Z,15348
2018-09-29T12:51:48.014Z,16452
2018-09-29T12:52:50.343Z,17548
2018-09-29T12:53:52.381Z,18528
2018-09-29T12:54:54.421Z,19008
2018-09-29T12:55:56.752Z,19168
2018-09-29T12:56:58.776Z,18848
2018-09-29T12:58:00.807Z,17824
2018-09-29T12:59:02.957Z,16776
2018-09-29T13:00:05.347Z,15720
2018-09-29T13:01:07.688Z,15036
2018-09-29T13:02:09.707Z,14484
2018-09-29T13:03:12.041Z,13748
2018-09-29T13:04:14.070Z,12896
2018-09-29T13:05:16.231Z,12044
2018-09-29T13:06:18.141Z,11432
2018-09-29T13:07:20.163Z,11244
2018-09-29T13:08:22.202Z,11820
2018-09-29T13:09:24.245Z,12884
2018-09-29T13:10:26.285Z,13932
2018-09-29T13:11:28.310Z,14348
2018-09-29T13:12:30.635Z,14096
2018-09-29T13:13:32.664Z,13812
2018-09-29T13:14:34.689Z,13712
2018-09-29T13:15:37.020Z,13996
2018-09-29T13:16:39.349Z,14728
2018-09-29T13:17:41.725Z,15720
2018-09-29T13:18:43.764Z,16820
2018-09-29T13:19:45.805Z,17560
2018-09-29T13:20:47.844Z,17972
2018-09-29T13:21:49.880Z,17532
2018-09-29T13:22:51.948Z,16684
2018-09-29T13:23:53.944Z,16120
2018-09-29T13:24:56.000Z,16112
2018-09-29T13:25:58.025Z,16488
2018-09-29T13:27:00.055Z,16400
2018-09-29T13:28:02.083Z,16128
2018-09-29T13:29:04.401Z,16536
2018-09-29T13:30:06.427Z,16684
2018-09-29T13:31:08.739Z,16296
2018-09-29T13:32:10.769Z,15796
2018-09-29T13:33:13.103Z,15748
2018-09-29T13:34:15.423Z,16060
2018-09-29T13:35:17.448Z,15932
2018-09-29T13:36:19.493Z,17052
2018-09-29T13:37:21.522Z,16296
2018-09-29T13:38:23.555Z,17644
2018-09-29T13:39:25.592Z,19296
2018-09-29T13:40:27.613Z,20544
2018-09-29T13:41:30.048Z,21952
2018-09-29T13:42:32.365Z,22720
2018-09-29T13:43:34.406Z,22848
2018-09-29T13:44:36.726Z,22720
2018-09-29T13:45:39.048Z,22016
2018-09-29T13:46:41.078Z,22048
2018-09-29T13:47:43.110Z,21760
2018-09-29T13:48:45.824Z,21888
2018-09-29T13:49:48.148Z,22176
2018-09-29T13:50:50.468Z,23552
2018-09-29T13:51:52.506Z,22624
2018-09-29T13:52:54.550Z,20512
2018-09-29T13:53:56.575Z,19744
2018-09-29T13:54:58.627Z,19168
2018-09-29T13:56:00.671Z,19008
2018-09-29T13:57:02.984Z,18912
2018-09-29T13:58:05.028Z,19232
2018-09-29T13:59:07.342Z,18228
2018-09-29T14:00:09.653Z,16660
2018-09-29T14:01:11.686Z,15072
2018-09-29T14:02:13.751Z,15036
2018-09-29T14:03:16.165Z,16264